createdAt,value
2022-08-20T00:01:04.534Z,95.89
2022-08-20T00:03:37.743Z,96.06
2022-08-20T00:06:11.679Z,96.34
2022-08-20T00:08:39.097Z,97.05
2022-08-20T00:11:08.121Z,96.47
2022-08-20T00:13:39.753Z,96.25
2022-08-20T00:16:07.381Z,95.74
2022-08-20T00:18:37.035Z,95.82
2022-08-20T00:21:07.487Z,96.01
2022-08-20T00:23:40.560Z,96.00
2022-08-20T00:26:07.865Z,96.20
2022-08-20T00:28:35.159Z,96.57
2022-08-20T00:31:05.035Z,96.92
2022-08-20T00:33:32.221Z,96.29
2022-08-20T00:35:59.494Z,96.80
2022-08-20T00:38:26.079Z,96.75
2022-08-20T00:40:57.693Z,96.21
2022-08-20T00:43:32.147Z,96.37
2022-08-20T00:46:31.270Z,96.37
2022-08-20T00:49:01.772Z,96.85
2022-08-20T00:51:49.638Z,97.06
2022-08-20T00:54:26.544Z,97.41
2022-08-20T00:56:58.325Z,96.59
2022-08-20T00:59:29.849Z,96.00
2022-08-20T01:01:57.833Z,96.15
2022-08-20T01:04:31.440Z,95.49
2022-08-20T01:06:57.971Z,94.74
2022-08-20T01:09:33.404Z,94.92
2022-08-20T01:12:11.802Z,95.80
2022-08-20T01:14:46.229Z,95.44
2022-08-20T01:17:18.548Z,95.77
2022-08-20T01:19:50.271Z,96.09
2022-08-20T01:22:42.378Z,95.29
2022-08-20T01:25:16.756Z,96.09
2022-08-20T01:27:44.771Z,95.82
2022-08-20T01:30:12.676Z,95.62
2022-08-20T01:32:39.530Z,95.82
2022-08-20T01:35:08.937Z,94.84
2022-08-20T01:37:35.462Z,95.19
2022-08-20T01:40:04.716Z,95.54
2022-08-20T01:42:58.590Z,94.94
2022-08-20T01:45:27.974Z,95.19
2022-08-20T01:47:57.537Z,95.21
2022-08-20T01:50:27.859Z,95.15
2022-08-20T01:53:02.433Z,95.39
2022-08-20T01:55:29.139Z,95.37
2022-08-20T01:57:56.536Z,95.57
2022-08-20T02:00:24.504Z,95.94
2022-08-20T02:02:52.027Z,95.99
2022-08-20T02:05:20.254Z,95.76
2022-08-20T02:07:47.130Z,95.76
2022-08-20T02:10:16.499Z,96.05
2022-08-20T02:12:43.436Z,96.74
2022-08-20T02:15:11.697Z,96.99
2022-08-20T02:17:39.476Z,97.57
2022-08-20T02:20:13.112Z,98.54
2022-08-20T02:22:49.277Z,97.93
2022-08-20T02:25:19.188Z,98.23
2022-08-20T02:27:48.633Z,98.32
2022-08-20T02:31:08.375Z,98.66
2022-08-20T02:33:35.645Z,98.57
2022-08-20T02:36:06.527Z,98.95
2022-08-20T02:38:35.036Z,98.84
2022-08-20T02:41:02.365Z,98.80
2022-08-20T02:43:29.566Z,99.63
2022-08-20T02:45:56.867Z,99.67
2022-08-20T02:48:23.963Z,99.68
2022-08-20T02:50:54.742Z,99.79
2022-08-20T02:53:23.121Z,99.14
2022-08-20T02:55:50.559Z,98.93
2022-08-20T02:58:18.393Z,99.24
2022-08-20T03:01:07.719Z,99.25
2022-08-20T03:03:37.109Z,99.75
2022-08-20T03:06:12.217Z,99.62
2022-08-20T03:08:51.477Z,99.52
2022-08-20T03:11:19.200Z,99.38
2022-08-20T03:13:45.743Z,99.47
2022-08-20T03:16:12.495Z,99.47
2022-08-20T03:18:43.487Z,99.39
2022-08-20T03:21:11.580Z,99.24
2022-08-20T03:23:42.112Z,100.00
2022-08-20T03:26:11.636Z,100.00
2022-08-20T03:28:38.379Z,99.66
2022-08-20T03:31:05.623Z,99.89
2022-08-20T03:33:32.451Z,99.74
2022-08-20T03:35:59.147Z,99.94
2022-08-20T03:38:32.395Z,100.00
2022-08-20T03:41:00.956Z,99.69
2022-08-20T03:43:27.964Z,100.00
2022-08-20T03:45:54.900Z,100.00
2022-08-20T03:48:21.956Z,100.00
2022-08-20T03:50:51.266Z,100.00
2022-08-20T03:53:18.376Z,99.35
2022-08-20T03:55:53.893Z,99.39
2022-08-20T03:58:21.860Z,99.47
2022-08-20T04:01:02.329Z,98.69
2022-08-20T04:03:28.968Z,98.47
2022-08-20T04:05:55.521Z,98.82
2022-08-20T04:08:26.992Z,97.87
2022-08-20T04:10:57.630Z,97.59
2022-08-20T04:13:26.520Z,97.86
2022-08-20T04:16:11.259Z,97.77
2022-08-20T04:18:41.048Z,98.04
2022-08-20T04:21:11.033Z,98.39
2022-08-20T04:23:37.590Z,98.27
2022-08-20T04:26:04.660Z,97.92
2022-08-20T04:28:31.154Z,98.26
2022-08-20T04:30:59.678Z,98.27
2022-08-20T04:33:34.196Z,97.67
2022-08-20T04:36:06.308Z,97.70
2022-08-20T04:38:50.184Z,98.02
2022-08-20T04:41:21.051Z,97.99
2022-08-20T04:43:50.189Z,98.20
2022-08-20T04:49:13.939Z,98.39
2022-08-20T04:51:47.943Z,98.27
2022-08-20T04:54:17.005Z,98.26
2022-08-20T04:56:43.730Z,98.08
2022-08-20T04:59:10.616Z,98.22
2022-08-20T05:01:37.231Z,98.04
2022-08-20T05:04:04.067Z,97.49
2022-08-20T05:06:32.300Z,97.72
2022-08-20T05:09:00.247Z,97.26
2022-08-20T05:11:33.517Z,97.18
2022-08-20T05:14:05.584Z,97.12
2022-08-20T05:16:37.944Z,97.02
2022-08-20T05:19:06.021Z,97.23
2022-08-20T05:21:32.564Z,96.43
2022-08-20T05:23:59.592Z,96.36
2022-08-20T05:26:26.512Z,96.18
2022-08-20T05:28:58.013Z,96.14
2022-08-20T05:31:31.629Z,95.99
2022-08-20T05:34:01.400Z,95.79
2022-08-20T05:36:28.109Z,95.44
2022-08-20T05:38:54.773Z,95.73
2022-08-20T05:41:29.043Z,95.45
2022-08-20T05:44:02.803Z,95.68
2022-08-20T05:46:32.609Z,94.59
2022-08-20T05:49:01.759Z,94.69
2022-08-20T05:51:29.880Z,95.28
2022-08-20T05:53:59.312Z,94.42
2022-08-20T05:56:30.367Z,94.37
2022-08-20T05:59:00.403Z,93.42
2022-08-20T06:01:27.142Z,93.38
2022-08-20T06:04:12.458Z,92.84
2022-08-20T06:06:45.651Z,92.28
2022-08-20T06:09:28.001Z,92.57
2022-08-20T06:12:04.693Z,92.17
2022-08-20T06:14:32.466Z,91.49
2022-08-20T06:17:22.159Z,91.07
2022-08-20T06:19:49.791Z,91.84
2022-08-20T06:22:18.844Z,90.89
2022-08-20T06:24:53.158Z,91.17
2022-08-20T06:27:20.194Z,90.63
2022-08-20T06:29:47.851Z,90.53
2022-08-20T06:32:15.191Z,90.19
2022-08-20T06:34:49.051Z,90.64
2022-08-20T06:37:23.541Z,89.82
2022-08-20T06:40:02.597Z,89.54
2022-08-20T06:42:29.640Z,90.25
2022-08-20T06:44:56.176Z,89.98
2022-08-20T06:47:23.295Z,89.99
2022-08-20T06:49:49.912Z,89.99
2022-08-20T06:52:17.211Z,90.29
2022-08-20T06:54:45.073Z,89.60
2022-08-20T06:57:11.792Z,89.22
2022-08-20T06:59:38.561Z,89.14
2022-08-20T07:02:05.805Z,89.51
2022-08-20T07:04:32.467Z,89.34
2022-08-20T07:06:59.555Z,89.19
2022-08-20T07:09:27.540Z,89.77
2022-08-20T07:11:54.212Z,89.42
2022-08-20T07:14:20.815Z,88.22
2022-08-20T07:16:47.404Z,88.55
2022-08-20T07:19:15.120Z,88.46
2022-08-20T07:21:41.700Z,89.05
2022-08-20T07:24:09.816Z,90.24
2022-08-20T07:26:36.598Z,89.79
2022-08-20T07:29:03.876Z,91.10
2022-08-20T07:31:49.181Z,91.15
2022-08-20T07:34:16.777Z,91.87
2022-08-20T07:36:48.430Z,92.12
2022-08-20T07:39:15.256Z,92.20
2022-08-20T07:41:43.443Z,92.30
2022-08-20T07:44:15.613Z,92.27
2022-08-20T07:46:43.065Z,92.67
2022-08-20T07:49:11.965Z,91.93
2022-08-20T07:51:38.528Z,91.44
2022-08-20T07:54:06.040Z,91.58
2022-08-20T07:56:32.540Z,91.56
2022-08-20T07:59:01.537Z,91.29
2022-08-20T08:01:30.928Z,91.07
2022-08-20T08:03:59.630Z,90.37
2022-08-20T08:06:30.169Z,91.06
2022-08-20T08:09:14.173Z,90.46
2022-08-20T08:11:47.422Z,91.09
2022-08-20T08:14:16.747Z,89.79
2022-08-20T08:16:45.474Z,89.91
2022-08-20T08:19:15.485Z,89.57
2022-08-20T08:21:44.306Z,90.59
2022-08-20T08:24:14.346Z,90.48
2022-08-20T08:26:44.295Z,90.03
2022-08-20T08:29:12.170Z,89.52
2022-08-20T08:31:40.962Z,89.69
2022-08-20T08:34:07.477Z,89.60
2022-08-20T08:36:34.047Z,89.03
2022-08-20T08:39:00.600Z,89.64
2022-08-20T08:41:49.611Z,89.42
2022-08-20T08:44:27.314Z,89.49
2022-08-20T08:46:58.899Z,89.74
2022-08-20T08:49:35.156Z,90.37
2022-08-20T08:52:16.558Z,90.41
2022-08-20T08:54:49.013Z,90.40
2022-08-20T08:57:16.494Z,91.05
2022-08-20T08:59:52.370Z,91.74
2022-08-20T09:02:32.600Z,91.10
2022-08-20T09:05:03.033Z,90.66
2022-08-20T09:07:32.668Z,91.43
2022-08-20T09:10:00.013Z,91.76
2022-08-20T09:12:27.954Z,91.50
2022-08-20T09:14:54.578Z,91.43
2022-08-20T09:17:22.757Z,92.35
2022-08-20T09:19:50.330Z,92.10
2022-08-20T09:22:19.748Z,91.53
2022-08-20T09:24:46.462Z,91.14
2022-08-20T09:27:13.130Z,91.67
2022-08-20T09:29:40.017Z,91.74
2022-08-20T09:32:13.999Z,90.82
2022-08-20T09:34:57.253Z,90.12
2022-08-20T09:37:36.661Z,90.96
2022-08-20T09:40:37.415Z,89.60
2022-08-20T09:43:26.941Z,89.32
2022-08-20T09:46:10.547Z,88.69
2022-08-20T09:54:46.362Z,88.37
2022-08-20T09:57:15.386Z,89.20
2022-08-20T09:59:42.427Z,87.54
2022-08-20T10:02:09.150Z,86.81
2022-08-20T10:04:35.784Z,86.19
2022-08-20T10:07:08.519Z,85.59
2022-08-20T10:09:40.022Z,86.69
2022-08-20T10:12:11.406Z,85.55
2022-08-20T10:14:37.968Z,85.71
2022-08-20T10:17:07.768Z,85.28
2022-08-20T10:19:34.650Z,84.08
2022-08-20T10:22:01.667Z,83.61
2022-08-20T10:24:28.920Z,84.06
2022-08-20T10:26:57.499Z,84.41
2022-08-20T10:29:25.024Z,83.53
2022-08-20T10:31:52.668Z,83.42
2022-08-20T10:34:19.535Z,83.27
2022-08-20T10:36:47.183Z,81.79
2022-08-20T10:39:13.827Z,82.34
2022-08-20T10:41:40.747Z,82.72
2022-08-20T10:44:07.694Z,82.76
2022-08-20T10:46:35.039Z,84.80
2022-08-20T10:49:01.773Z,83.06
2022-08-20T10:51:32.422Z,84.34
2022-08-20T10:53:59.871Z,82.69
2022-08-20T10:56:26.446Z,81.92
2022-08-20T10:58:55.571Z,82.62
2022-08-20T11:01:31.530Z,83.24
2022-08-20T11:04:00.858Z,81.92
2022-08-20T11:06:27.375Z,81.69
2022-08-20T11:08:53.966Z,81.79
2022-08-20T11:11:26.372Z,81.08
2022-08-20T11:13:52.920Z,82.24
2022-08-20T11:16:19.511Z,81.94
2022-08-20T11:18:47.513Z,82.24
2022-08-20T11:21:14.733Z,81.49
2022-08-20T11:23:41.276Z,83.04
2022-08-20T11:26:08.460Z,82.40
2022-08-20T11:28:35.244Z,81.04
2022-08-20T11:31:02.439Z,82.72
2022-08-20T11:33:32.455Z,81.04
2022-08-20T11:35:59.024Z,81.46
2022-08-20T11:38:25.940Z,80.47
2022-08-20T11:40:52.475Z,81.29
2022-08-20T11:43:19.088Z,79.82
2022-08-20T11:45:49.720Z,81.12
2022-08-20T11:48:24.543Z,80.84
2022-08-20T11:50:51.129Z,80.79
2022-08-20T11:53:18.036Z,80.23
2022-08-20T11:55:44.786Z,77.12
2022-08-20T11:58:12.511Z,77.75
2022-08-20T12:00:39.802Z,80.51
2022-08-20T12:03:08.912Z,75.77
2022-08-20T12:05:37.316Z,73.79
2022-08-20T12:08:05.894Z,72.82
2022-08-20T12:10:34.042Z,74.17
2022-08-20T12:13:01.713Z,73.26
2022-08-20T12:15:31.177Z,72.57
2022-08-20T12:17:57.892Z,73.10
2022-08-20T12:20:27.228Z,72.81
2022-08-20T12:22:54.106Z,72.56
2022-08-20T12:25:20.754Z,72.98
2022-08-20T12:27:47.393Z,71.64
2022-08-20T12:30:17.824Z,72.21
2022-08-20T12:32:44.842Z,75.41
2022-08-20T12:35:14.904Z,74.44
2022-08-20T12:37:43.025Z,72.59
2022-08-20T12:40:14.069Z,73.09
2022-08-20T12:42:40.796Z,69.08
2022-08-20T12:45:08.028Z,72.74
2022-08-20T12:47:37.143Z,73.67
2022-08-20T12:50:10.986Z,68.96
2022-08-20T12:52:38.806Z,71.45
2022-08-20T12:55:07.741Z,74.42
2022-08-20T12:57:41.844Z,70.64
2022-08-20T13:00:22.627Z,69.09
2022-08-20T13:02:53.116Z,69.07
2022-08-20T13:05:20.555Z,71.04
2022-08-20T13:07:48.100Z,69.29
2022-08-20T13:10:21.808Z,72.47
2022-08-20T13:12:49.087Z,70.32
2022-08-20T13:15:16.040Z,70.44
2022-08-20T13:17:43.071Z,71.14
2022-08-20T13:20:16.136Z,71.74
2022-08-20T13:22:43.181Z,71.75
2022-08-20T13:25:11.389Z,76.44
2022-08-20T13:27:41.227Z,75.54
2022-08-20T13:30:09.425Z,77.71
2022-08-20T13:32:36.110Z,77.09
2022-08-20T13:35:02.804Z,78.72
2022-08-20T13:37:30.312Z,79.34
2022-08-20T13:40:15.157Z,78.00
2022-08-20T13:42:44.970Z,78.18
2022-08-20T13:45:39.985Z,80.04
2022-08-20T13:48:21.515Z,82.30
2022-08-20T13:50:48.098Z,81.94
2022-08-20T13:53:15.249Z,83.09
2022-08-20T13:55:42.123Z,82.52
2022-08-20T13:58:08.786Z,82.77
2022-08-20T14:00:36.635Z,83.57
2022-08-20T14:03:05.673Z,81.70
2022-08-20T14:05:33.435Z,82.44
2022-08-20T14:08:18.355Z,83.22
2022-08-20T14:10:47.205Z,83.49
2022-08-20T14:13:20.090Z,84.87
2022-08-20T14:15:50.307Z,85.33
2022-08-20T14:18:16.918Z,86.02
2022-08-20T14:20:45.416Z,83.36
2022-08-20T14:23:12.562Z,85.01
2022-08-20T14:25:39.155Z,83.05
2022-08-20T14:28:18.554Z,83.67
2022-08-20T14:30:46.643Z,85.41
2022-08-20T14:33:19.366Z,84.04
2022-08-20T14:35:45.903Z,85.52
2022-08-20T14:38:12.417Z,87.66
2022-08-20T14:40:38.931Z,87.00
2022-08-20T14:43:05.531Z,87.02
2022-08-20T14:45:32.288Z,88.92
2022-08-20T14:47:59.760Z,89.07
2022-08-20T14:50:31.732Z,88.89
2022-08-20T14:52:58.900Z,89.37
2022-08-20T14:55:29.466Z,90.67
2022-08-20T14:57:56.894Z,90.37
2022-08-20T15:00:30.044Z,90.86
2022-08-20T15:02:57.905Z,91.44
2022-08-20T15:05:24.655Z,91.98
2022-08-20T15:07:52.986Z,92.87
2022-08-20T15:10:26.990Z,93.40
2022-08-20T15:12:54.469Z,93.12
2022-08-20T15:15:22.167Z,93.12
2022-08-20T15:17:55.107Z,92.45
2022-08-20T15:20:26.449Z,92.55
2022-08-20T15:22:54.247Z,92.83
2022-08-20T15:25:23.866Z,93.07
2022-08-20T15:27:50.745Z,93.75
2022-08-20T15:30:20.524Z,94.42
2022-08-20T15:32:51.426Z,94.13
2022-08-20T15:35:21.380Z,94.42
2022-08-20T15:37:50.103Z,94.69
2022-08-20T15:40:23.498Z,94.02
2022-08-20T15:42:53.972Z,94.04
2022-08-20T15:45:21.909Z,94.36
2022-08-20T15:48:00.332Z,94.35
2022-08-20T15:50:47.394Z,94.55
2022-08-20T15:53:24.847Z,95.45
2022-08-20T15:56:29.994Z,95.48
2022-08-20T15:59:14.524Z,95.21
2022-08-20T16:01:46.980Z,95.75
2022-08-20T16:04:25.016Z,96.14
2022-08-20T16:06:57.089Z,96.72
2022-08-20T16:09:42.098Z,95.29
2022-08-20T16:12:12.401Z,95.31
2022-08-20T16:14:45.889Z,95.82
2022-08-20T16:17:17.778Z,95.76
2022-08-20T16:19:56.156Z,96.03
2022-08-20T16:22:23.453Z,96.19
2022-08-20T16:24:50.276Z,95.55
2022-08-20T16:27:26.711Z,95.40
2022-08-20T16:30:08.067Z,95.22
2022-08-20T16:32:46.083Z,94.52
2022-08-20T16:35:36.197Z,94.54
2022-08-20T16:38:07.061Z,94.89
2022-08-20T16:40:36.571Z,95.04
2022-08-20T16:43:05.487Z,95.59
2022-08-20T16:45:51.048Z,96.00
2022-08-20T16:48:19.131Z,96.33
2022-08-20T16:51:03.292Z,96.17
2022-08-20T16:53:30.216Z,96.58
2022-08-20T16:55:56.887Z,96.34
2022-08-20T16:58:25.365Z,95.92
2022-08-20T17:01:08.465Z,96.32
2022-08-20T17:03:40.218Z,96.98
2022-08-20T17:06:25.058Z,97.88
2022-08-20T17:08:53.896Z,97.73
2022-08-20T17:11:32.623Z,97.67
2022-08-20T17:14:15.396Z,98.03
2022-08-20T17:16:44.912Z,98.34
2022-08-20T17:19:29.422Z,98.34
2022-08-20T17:22:08.106Z,97.70
2022-08-20T17:24:36.202Z,98.19
2022-08-20T17:27:10.777Z,98.14
2022-08-20T17:29:50.092Z,98.57
2022-08-20T17:32:24.744Z,96.95
2022-08-20T17:34:55.876Z,96.62
2022-08-20T17:37:33.629Z,97.14
2022-08-20T17:40:16.027Z,97.49
2022-08-20T17:42:52.871Z,97.84
2022-08-20T17:45:24.433Z,98.36
2022-08-20T17:47:52.755Z,98.48
2022-08-20T17:50:25.548Z,97.68
2022-08-20T17:52:58.372Z,97.73
2022-08-20T17:55:26.528Z,97.82
2022-08-20T17:57:56.919Z,97.79
2022-08-20T18:00:26.145Z,98.26
2022-08-20T18:03:19.226Z,98.16
2022-08-20T18:05:55.283Z,97.80
2022-08-20T18:08:31.199Z,98.37
2022-08-20T18:11:17.080Z,98.41
2022-08-20T18:14:17.685Z,98.41
2022-08-20T18:17:00.926Z,98.96
2022-08-20T18:19:52.195Z,98.55
2022-08-20T18:22:24.736Z,98.87
2022-08-20T18:25:17.279Z,98.84
2022-08-20T18:27:49.441Z,98.07
2022-08-20T18:30:22.623Z,97.69
2022-08-20T18:33:01.569Z,98.09
2022-08-20T18:35:39.642Z,98.36
2022-08-20T18:38:26.380Z,98.93
2022-08-20T18:40:55.180Z,99.07
2022-08-20T18:43:30.510Z,98.84
2022-08-20T18:46:13.325Z,98.91
2022-08-20T18:48:51.312Z,98.94
2022-08-20T18:51:21.349Z,98.57
2022-08-20T18:53:51.837Z,98.48
2022-08-20T18:56:34.267Z,98.58
2022-08-20T18:59:09.156Z,98.87
2022-08-20T19:01:37.769Z,98.94
2022-08-20T19:04:20.259Z,99.02
2022-08-20T19:06:57.437Z,99.03
2022-08-20T19:09:34.048Z,99.10
2022-08-20T19:12:37.679Z,99.31
2022-08-20T19:15:19.070Z,99.22
2022-08-20T19:18:05.886Z,99.25
2022-08-20T19:20:35.904Z,99.19
2022-08-20T19:23:09.478Z,98.77
2022-08-20T19:25:40.736Z,98.47
2022-08-20T19:28:21.546Z,98.97
2022-08-20T19:30:48.645Z,99.07
2022-08-20T19:33:25.385Z,99.60
2022-08-20T19:35:52.669Z,99.75
2022-08-20T19:38:28.602Z,99.91
2022-08-20T19:41:04.314Z,99.75
2022-08-20T19:43:43.259Z,98.96
2022-08-20T19:46:10.219Z,99.11
2022-08-20T19:49:01.282Z,99.25
2022-08-20T19:51:45.751Z,99.12
2022-08-20T19:54:27.024Z,99.29
2022-08-20T19:57:01.226Z,99.22
2022-08-20T19:59:27.810Z,98.98
2022-08-20T20:02:01.618Z,99.38
2022-08-20T20:04:41.182Z,99.48
2022-08-20T20:07:38.789Z,99.07
2022-08-20T20:10:08.659Z,99.07
2022-08-20T20:12:35.315Z,99.56
2022-08-20T20:15:02.930Z,99.82
2022-08-20T20:17:34.791Z,99.53
2022-08-20T20:20:15.436Z,99.41
2022-08-20T20:23:13.124Z,100.00
2022-08-20T20:25:43.727Z,100.00
2022-08-20T20:28:38.496Z,99.56
2022-08-20T20:31:08.126Z,99.15
2022-08-20T20:33:43.414Z,99.91
2022-08-20T20:36:17.876Z,99.81
2022-08-20T20:39:00.099Z,99.92
2022-08-20T20:41:29.368Z,100.00
2022-08-20T20:44:06.572Z,100.00
2022-08-20T20:46:35.603Z,99.57
2022-08-20T20:49:15.513Z,99.75
2022-08-20T20:51:54.327Z,99.92
2022-08-20T20:54:31.232Z,99.97
2022-08-20T20:57:04.316Z,100.00
2022-08-20T20:59:32.660Z,100.00
2022-08-20T21:01:59.359Z,100.00
2022-08-20T21:04:26.424Z,100.00
2022-08-20T21:06:55.415Z,100.00
2022-08-20T21:09:23.863Z,100.00
2022-08-20T21:11:51.003Z,100.00
2022-08-20T21:14:18.471Z,100.00
2022-08-20T21:16:45.386Z,99.99
2022-08-20T21:19:13.337Z,100.00
2022-08-20T21:21:46.268Z,100.00
2022-08-20T21:24:12.999Z,100.00
2022-08-20T21:26:39.839Z,100.00
2022-08-20T21:29:09.671Z,100.00
2022-08-20T21:31:43.892Z,100.00
2022-08-20T21:34:13.223Z,100.00
2022-08-20T21:36:40.085Z,100.00
2022-08-20T21:39:07.015Z,100.00
2022-08-20T21:41:34.079Z,100.00
2022-08-20T21:44:04.141Z,100.00
2022-08-20T21:46:31.215Z,100.00
2022-08-20T21:48:57.801Z,100.00
2022-08-20T21:51:24.364Z,100.00
2022-08-20T21:53:51.234Z,100.00
2022-08-20T21:56:18.216Z,100.00
2022-08-20T21:58:46.810Z,100.00
2022-08-20T22:01:14.672Z,100.00
2022-08-20T22:03:41.947Z,100.00
2022-08-20T22:06:12.585Z,100.00
2022-08-20T22:08:39.627Z,100.00
2022-08-20T22:11:09.120Z,100.00
2022-08-20T22:13:36.016Z,100.00
2022-08-20T22:16:07.385Z,100.00
2022-08-20T22:18:36.550Z,100.00
2022-08-20T22:21:07.087Z,100.00
2022-08-20T22:23:34.307Z,100.00
2022-08-20T22:26:00.944Z,100.00
2022-08-20T22:28:27.577Z,100.00
2022-08-20T22:30:54.219Z,100.00
2022-08-20T22:33:22.972Z,100.00
2022-08-20T22:35:55.177Z,100.00
2022-08-20T22:38:22.019Z,100.00
2022-08-20T22:40:49.557Z,100.00
2022-08-20T22:43:16.792Z,99.17
2022-08-20T22:45:45.618Z,97.89
2022-08-20T22:48:16.536Z,98.16
2022-08-20T22:50:43.420Z,97.82
2022-08-20T22:53:11.123Z,97.86
2022-08-20T22:55:38.604Z,98.49
2022-08-20T22:58:06.635Z,98.82
2022-08-20T23:00:34.378Z,98.52
2022-08-20T23:03:02.204Z,98.30
2022-08-20T23:05:31.828Z,98.59
2022-08-20T23:08:00.239Z,97.76
2022-08-20T23:10:30.282Z,98.24
2022-08-20T23:12:57.524Z,97.94
2022-08-20T23:15:26.356Z,97.94
2022-08-20T23:17:58.596Z,97.68
2022-08-20T23:20:25.508Z,98.13
2022-08-20T23:22:52.195Z,98.78
2022-08-20T23:25:21.933Z,98.43
2022-08-20T23:27:51.701Z,98.31
2022-08-20T23:30:20.509Z,98.84
2022-08-20T23:32:47.157Z,98.61
2022-08-20T23:35:14.108Z,98.42
2022-08-20T23:37:46.595Z,96.72
2022-08-20T23:40:14.289Z,97.11
2022-08-20T23:42:40.877Z,98.31
2022-08-20T23:45:08.356Z,99.29
2022-08-20T23:47:35.944Z,99.27
2022-08-20T23:50:03.755Z,98.23
2022-08-20T23:52:31.749Z,99.18
2022-08-20T23:54:58.553Z,99.34
2022-08-20T23:57:25.201Z,99.42
2022-08-20T23:59:52.961Z,99.79
